createdAt,value
2022-10-09T00:00:28.585Z,102551.38
2022-10-09T00:02:30.045Z,102563.66
2022-10-09T00:04:31.479Z,102562.72
2022-10-09T00:06:34.645Z,102563.59
2022-10-09T00:08:39.335Z,102567.00
2022-10-09T00:10:42.368Z,102566.09
2022-10-09T00:12:43.932Z,102564.31
2022-10-09T00:14:45.375Z,102560.75
2022-10-09T00:16:46.887Z,102569.50
2022-10-09T00:18:49.028Z,102573.00
2022-10-09T00:20:50.434Z,102565.97
2022-10-09T00:22:51.902Z,102568.59
2022-10-09T00:24:53.449Z,102565.94
2022-10-09T00:26:54.878Z,102572.09
2022-10-09T00:28:56.570Z,102572.09
2022-10-09T00:30:58.356Z,102574.75
2022-10-09T00:32:59.795Z,102574.75
2022-10-09T00:35:01.209Z,102572.09
2022-10-09T00:37:02.614Z,102574.69
2022-10-09T00:39:04.055Z,102576.38
2022-10-09T00:41:06.702Z,102576.38
2022-10-09T00:43:16.127Z,102584.25
2022-10-09T00:45:20.849Z,102581.63
2022-10-09T00:47:35.796Z,102577.25
2022-10-09T00:49:37.357Z,102585.16
2022-10-09T00:51:39.719Z,102575.53
2022-10-09T00:53:41.541Z,102586.91
2022-10-09T00:55:43.341Z,102584.25
2022-10-09T00:57:45.564Z,102586.91
2022-10-09T00:59:47.234Z,102586.03
2022-10-09T01:01:48.914Z,102582.50
2022-10-09T01:03:50.411Z,102583.38
2022-10-09T01:06:15.992Z,102591.28
2022-10-09T01:08:24.845Z,102584.25
2022-10-09T01:10:35.580Z,102585.06
2022-10-09T01:13:07.277Z,102583.34
2022-10-09T01:15:24.114Z,102588.59
2022-10-09T01:17:42.915Z,102583.31
2022-10-09T01:20:04.287Z,102582.34
2022-10-09T01:22:28.868Z,102580.63
2022-10-09T01:24:47.976Z,102583.22
2022-10-09T01:27:13.666Z,102579.69
2022-10-09T01:29:17.905Z,102580.56
2022-10-09T01:31:22.983Z,102577.06
2022-10-09T01:33:24.471Z,102576.09
2022-10-09T01:35:26.514Z,102583.09
2022-10-09T01:37:30.630Z,102581.34
2022-10-09T01:39:34.335Z,102582.22
2022-10-09T01:41:35.770Z,102582.16
2022-10-09T01:43:37.261Z,102576.91
2022-10-09T01:45:41.253Z,102582.16
2022-10-09T01:47:43.296Z,102582.16
2022-10-09T01:49:53.968Z,102587.38
2022-10-09T01:52:20.549Z,102581.19
2022-10-09T01:54:33.620Z,102582.94
2022-10-09T01:56:39.413Z,102588.19
2022-10-09T01:58:54.752Z,102588.16
2022-10-09T02:01:00.438Z,102589.84
2022-10-09T02:03:06.520Z,102588.06
2022-10-09T02:05:11.240Z,102580.19
2022-10-09T02:07:12.892Z,102580.13
2022-10-09T02:09:16.679Z,102574.00
2022-10-09T02:11:18.467Z,102574.88
2022-10-09T02:13:20.626Z,102577.47
2022-10-09T02:15:27.135Z,102580.09
2022-10-09T02:17:33.605Z,102583.56
2022-10-09T02:19:40.178Z,102584.44
2022-10-09T02:21:45.078Z,102576.53
2022-10-09T02:23:50.376Z,102574.78
2022-10-09T02:25:53.004Z,102579.16
2022-10-09T02:27:55.595Z,102579.16
2022-10-09T02:29:58.613Z,102579.19
2022-10-09T02:32:00.239Z,102576.56
2022-10-09T02:34:07.650Z,102576.50
2022-10-09T02:36:09.278Z,102580.78
2022-10-09T02:38:10.715Z,102582.56
2022-10-09T02:40:12.136Z,102581.72
2022-10-09T02:42:13.703Z,102574.72
2022-10-09T02:44:15.184Z,102578.25
2022-10-09T02:46:16.856Z,102573.81
2022-10-09T02:48:18.684Z,102571.16
2022-10-09T02:50:20.161Z,102574.66
2022-10-09T02:52:21.584Z,102571.13
2022-10-09T02:54:23.002Z,102577.22
2022-10-09T02:56:24.413Z,102570.16
2022-10-09T02:58:26.142Z,102577.19
2022-10-09T03:00:27.817Z,102580.69
2022-10-09T03:02:29.362Z,102574.53
2022-10-09T03:04:30.903Z,102571.91
2022-10-09T03:06:32.560Z,102574.53
2022-10-09T03:08:33.965Z,102575.38
2022-10-09T03:10:37.532Z,102577.09
2022-10-09T03:12:38.930Z,102571.81
2022-10-09T03:14:40.393Z,102573.53
2022-10-09T03:16:41.849Z,102579.63
2022-10-09T03:18:44.047Z,102568.25
2022-10-09T03:20:45.570Z,102573.50
2022-10-09T03:22:47.332Z,102574.34
2022-10-09T03:24:48.949Z,102580.44
2022-10-09T03:26:50.452Z,102573.41
2022-10-09T03:28:53.565Z,102576.94
2022-10-09T03:30:55.241Z,102579.56
2022-10-09T03:32:56.661Z,102578.66
2022-10-09T03:34:58.084Z,102587.41
2022-10-09T03:36:59.516Z,102589.13
2022-10-09T03:39:00.918Z,102588.25
2022-10-09T03:41:04.654Z,102589.13
2022-10-09T03:43:06.126Z,102588.16
2022-10-09T03:45:08.142Z,102590.72
2022-10-09T03:47:09.688Z,102599.44
2022-10-09T03:49:11.169Z,102595.94
2022-10-09T03:51:12.587Z,102602.06
2022-10-09T03:53:15.589Z,102601.22
2022-10-09T03:55:17.217Z,102603.81
2022-10-09T03:57:18.707Z,102600.28
2022-10-09T03:59:20.155Z,102609.91
2022-10-09T04:01:21.651Z,102607.28
2022-10-09T04:03:23.164Z,102609.03
2022-10-09T04:05:24.597Z,102611.66
2022-10-09T04:07:26.033Z,102609.00
2022-10-09T04:09:27.467Z,102611.59
2022-10-09T04:11:28.938Z,102625.53
2022-10-09T04:13:30.440Z,102615.00
2022-10-09T04:15:32.000Z,102614.09
2022-10-09T04:17:33.466Z,102615.84
2022-10-09T04:19:34.967Z,102620.19
2022-10-09T04:21:36.372Z,102620.16
2022-10-09T04:23:37.793Z,102616.63
2022-10-09T04:25:39.202Z,102629.72
2022-10-09T04:27:40.750Z,102628.84
2022-10-09T04:29:42.230Z,102626.22
2022-10-09T04:31:43.752Z,102622.69
2022-10-09T04:33:45.261Z,102622.66
2022-10-09T04:35:50.296Z,102620.00
2022-10-09T04:37:51.772Z,102616.50
2022-10-09T04:39:53.184Z,102616.47
2022-10-09T04:41:54.586Z,102617.31
2022-10-09T04:43:57.137Z,102621.66
2022-10-09T04:45:58.772Z,102612.00
2022-10-09T04:48:00.252Z,102621.66
2022-10-09T04:50:01.778Z,102623.38
2022-10-09T04:52:03.206Z,102615.50
2022-10-09T04:54:04.712Z,102617.22
2022-10-09T04:56:12.480Z,102618.09
2022-10-09T04:58:14.534Z,102614.53
2022-10-09T05:00:16.138Z,102611.88
2022-10-09T05:02:17.707Z,102609.19
2022-10-09T05:04:19.244Z,102608.28
2022-10-09T05:06:21.973Z,102613.50
2022-10-09T05:08:23.373Z,102605.59
2022-10-09T05:10:24.822Z,102606.38
2022-10-09T05:12:26.859Z,102608.09
2022-10-09T05:14:28.334Z,102614.19
2022-10-09T05:16:31.619Z,102603.66
2022-10-09T05:18:34.148Z,102612.44
2022-10-09T05:20:40.672Z,102615.06
2022-10-09T05:22:44.580Z,102608.91
2022-10-09T05:24:46.009Z,102608.91
2022-10-09T05:26:47.465Z,102608.84
2022-10-09T05:28:49.821Z,102614.06
2022-10-09T05:30:51.559Z,102612.28
2022-10-09T05:32:53.058Z,102615.72
2022-10-09T05:34:54.638Z,102614.78
2022-10-09T05:36:56.082Z,102623.50
2022-10-09T05:38:57.910Z,102628.72
2022-10-09T05:41:01.783Z,102630.47
2022-10-09T05:43:03.207Z,102628.72
2022-10-09T05:45:04.792Z,102619.97
2022-10-09T05:47:06.284Z,102620.91
2022-10-09T05:49:07.923Z,102630.50
2022-10-09T05:51:17.320Z,102626.09
2022-10-09T05:53:18.746Z,102627.78
2022-10-09T05:55:20.246Z,102627.78
2022-10-09T05:57:21.648Z,102624.28
2022-10-09T05:59:23.083Z,102619.94
2022-10-09T06:01:30.743Z,102623.47
2022-10-09T06:03:32.278Z,102622.56
2022-10-09T06:05:33.731Z,102626.94
2022-10-09T06:07:35.245Z,102619.97
2022-10-09T06:09:36.710Z,102619.97
2022-10-09T06:11:40.009Z,102620.00
2022-10-09T06:13:42.546Z,102620.94
2022-10-09T06:15:54.636Z,102621.84
2022-10-09T06:17:56.115Z,102624.53
2022-10-09T06:19:57.585Z,102628.09
2022-10-09T06:21:59.060Z,102629.91
2022-10-09T06:24:03.017Z,102630.03
2022-10-09T06:26:07.478Z,102638.84
2022-10-09T06:28:08.968Z,102631.94
2022-10-09T06:30:10.968Z,102634.69
2022-10-09T06:32:12.648Z,102633.88
2022-10-09T06:34:14.060Z,102630.41
2022-10-09T06:36:18.055Z,102635.69
2022-10-09T06:38:19.495Z,102634.00
2022-10-09T06:40:20.940Z,102639.31
2022-10-09T06:42:22.452Z,102632.38
2022-10-09T06:44:24.213Z,102642.97
2022-10-09T06:46:32.468Z,102643.00
2022-10-09T06:48:35.356Z,102646.56
2022-10-09T06:50:37.720Z,102645.75
2022-10-09T06:52:39.144Z,102644.09
2022-10-09T06:54:40.594Z,102645.03
2022-10-09T06:56:42.143Z,102642.50
2022-10-09T06:58:44.400Z,102642.56
2022-10-09T07:00:45.827Z,102646.13
2022-10-09T07:02:47.778Z,102647.91
2022-10-09T07:04:49.445Z,102648.00
2022-10-09T07:06:50.980Z,102648.97
2022-10-09T07:09:01.678Z,102650.78
2022-10-09T07:11:21.388Z,102654.41
2022-10-09T07:13:22.808Z,102654.53
2022-10-09T07:15:24.310Z,102656.34
2022-10-09T07:17:26.690Z,102659.94
2022-10-09T07:19:28.175Z,102659.13
2022-10-09T07:21:30.101Z,102665.41
2022-10-09T07:23:32.737Z,102665.47
2022-10-09T07:25:40.190Z,102660.31
2022-10-09T07:27:41.612Z,102663.91
2022-10-09T07:29:43.226Z,102663.13
2022-10-09T07:31:45.115Z,102664.94
2022-10-09T07:33:51.515Z,102665.06
2022-10-09T07:35:54.546Z,102673.91
2022-10-09T07:37:56.301Z,102669.63
2022-10-09T07:39:57.862Z,102665.34
2022-10-09T07:41:59.288Z,102669.78
2022-10-09T07:44:01.185Z,102670.72
2022-10-09T07:46:03.896Z,102669.91
2022-10-09T07:48:05.362Z,102677.00
2022-10-09T07:50:07.351Z,102678.84
2022-10-09T07:52:08.764Z,102682.44
2022-10-09T07:54:10.204Z,102679.00
2022-10-09T07:56:20.323Z,102678.19
2022-10-09T07:58:21.799Z,102681.75
2022-10-09T08:00:23.227Z,102684.41
2022-10-09T08:02:24.809Z,102681.00
2022-10-09T08:04:26.262Z,102681.91
2022-10-09T08:06:28.422Z,102681.06
2022-10-09T08:08:30.154Z,102687.25
2022-10-09T08:10:32.166Z,102683.78
2022-10-09T08:12:33.622Z,102681.19
2022-10-09T08:14:35.051Z,102684.78
2022-10-09T08:16:36.541Z,102688.34
2022-10-09T08:18:38.259Z,102691.88
2022-10-09T08:20:39.931Z,102688.38
2022-10-09T08:22:41.342Z,102691.06
2022-10-09T08:24:42.757Z,102688.44
2022-10-09T08:26:44.584Z,102685.81
2022-10-09T08:29:13.978Z,102690.22
2022-10-09T08:31:17.283Z,102688.50
2022-10-09T08:33:21.824Z,102686.75
2022-10-09T08:35:23.476Z,102678.88
2022-10-09T08:37:24.904Z,102684.16
2022-10-09T08:39:30.769Z,102688.63
2022-10-09T08:41:52.864Z,102682.47
2022-10-09T08:44:00.983Z,102682.47
2022-10-09T08:46:06.732Z,102683.38
2022-10-09T08:48:22.141Z,102679.91
2022-10-09T08:50:32.320Z,102676.38
2022-10-09T08:52:49.868Z,102674.63
2022-10-09T08:54:55.211Z,102668.47
2022-10-09T08:56:59.735Z,102676.41
2022-10-09T08:59:02.377Z,102671.13
2022-10-09T09:01:21.970Z,102656.16
2022-10-09T09:03:54.093Z,102666.72
2022-10-09T09:06:06.938Z,102660.53
2022-10-09T09:08:44.621Z,102662.28
2022-10-09T09:11:03.088Z,102661.41
2022-10-09T09:13:27.827Z,102658.72
2022-10-09T09:16:03.310Z,102662.22
2022-10-09T09:18:33.860Z,102662.22
2022-10-09T09:20:55.686Z,102656.88
2022-10-09T09:23:00.966Z,102652.50
2022-10-09T09:25:17.380Z,102658.66
2022-10-09T09:27:28.863Z,102651.53
2022-10-09T09:29:38.451Z,102652.38
2022-10-09T09:31:41.385Z,102656.75
2022-10-09T09:33:52.028Z,102654.06
2022-10-09T09:36:09.013Z,102652.25
2022-10-09T09:38:10.552Z,102652.19
2022-10-09T09:40:36.156Z,102648.66
2022-10-09T09:42:38.893Z,102654.81
2022-10-09T09:44:46.210Z,102648.59
2022-10-09T09:46:49.417Z,102652.97
2022-10-09T09:48:51.093Z,102644.09
2022-10-09T09:51:10.108Z,102646.69
2022-10-09T09:53:31.930Z,102647.53
2022-10-09T09:55:34.478Z,102646.59
2022-10-09T09:57:42.522Z,102641.28
2022-10-09T09:59:44.213Z,102635.00
2022-10-09T10:01:45.888Z,102634.03
2022-10-09T10:03:50.649Z,102626.94
2022-10-09T10:05:52.276Z,102616.31
2022-10-09T10:07:54.429Z,102620.66
2022-10-09T10:10:06.155Z,102615.28
2022-10-09T10:12:21.888Z,102617.94
2022-10-09T10:14:23.605Z,102607.19
2022-10-09T10:16:31.027Z,102615.94
2022-10-09T10:18:39.573Z,102613.25
2022-10-09T10:20:43.731Z,102611.47
2022-10-09T10:22:53.959Z,102611.34
2022-10-09T10:24:58.310Z,102605.00
2022-10-09T10:27:28.927Z,102602.19
2022-10-09T10:29:45.205Z,102598.53
2022-10-09T10:32:04.472Z,102604.66
2022-10-09T10:34:21.966Z,102608.03
2022-10-09T10:36:25.683Z,102601.66
2022-10-09T10:38:35.875Z,102590.84
2022-10-09T10:40:52.599Z,102606.63
2022-10-09T10:43:09.053Z,102592.16
2022-10-09T10:45:15.572Z,102583.81
2022-10-09T10:47:26.829Z,102586.72
2022-10-09T10:49:33.471Z,102587.81
2022-10-09T10:51:53.955Z,102587.44
2022-10-09T10:54:14.396Z,102578.34
2022-10-09T10:56:28.483Z,102582.50
2022-10-09T10:58:38.631Z,102583.09
2022-10-09T11:00:48.288Z,102572.13
2022-10-09T11:03:28.582Z,102573.72
2022-10-09T11:05:38.650Z,102577.81
2022-10-09T11:08:07.353Z,102573.88
2022-10-09T11:10:17.674Z,102575.81
2022-10-09T11:12:48.100Z,102572.69
2022-10-09T11:15:07.282Z,102576.31
2022-10-09T11:17:36.703Z,102572.50
2022-10-09T11:19:47.376Z,102565.56
2022-10-09T11:21:54.971Z,102566.34
2022-10-09T11:24:27.161Z,102554.47
2022-10-09T11:27:08.453Z,102560.34
2022-10-09T11:29:29.839Z,102550.28
2022-10-09T11:31:45.601Z,102549.91
2022-10-09T11:33:52.260Z,102540.31
2022-10-09T11:36:00.240Z,102540.97
2022-10-09T11:38:21.826Z,102539.13
2022-10-09T11:40:34.048Z,102536.91
2022-10-09T11:42:35.690Z,102538.34
2022-10-09T11:44:37.040Z,102528.72
2022-10-09T11:46:50.317Z,102525.16
2022-10-09T11:49:01.342Z,102525.00
2022-10-09T11:51:23.288Z,102519.31
2022-10-09T11:53:27.660Z,102521.94
2022-10-09T11:55:31.766Z,102514.53
2022-10-09T11:57:33.559Z,102522.66
2022-10-09T11:59:37.382Z,102509.19
2022-10-09T12:01:44.654Z,102502.91
2022-10-09T12:03:46.296Z,102506.06
2022-10-09T12:05:49.588Z,102497.38
2022-10-09T12:07:51.116Z,102497.34
2022-10-09T12:09:59.469Z,102488.81
2022-10-09T12:12:07.410Z,102492.56
2022-10-09T12:14:11.742Z,102480.25
2022-10-09T12:16:37.082Z,102480.44
2022-10-09T12:18:44.318Z,102473.91
2022-10-09T12:20:47.966Z,102467.56
2022-10-09T12:23:14.233Z,102467.00
2022-10-09T12:25:32.396Z,102461.63
2022-10-09T12:27:38.174Z,102466.56
2022-10-09T12:29:44.647Z,102467.75
2022-10-09T12:31:50.611Z,102466.28
2022-10-09T12:33:57.107Z,102458.41
2022-10-09T12:36:05.549Z,102459.00
2022-10-09T12:38:36.405Z,102458.13
2022-10-09T12:40:38.367Z,102452.16
2022-10-09T12:42:40.459Z,102452.31
2022-10-09T12:44:44.481Z,102444.44
2022-10-09T12:46:46.058Z,102448.97
2022-10-09T12:48:47.589Z,102434.81
2022-10-09T12:50:50.137Z,102432.28
2022-10-09T12:53:04.168Z,102423.50
2022-10-09T12:55:22.246Z,102429.66
2022-10-09T12:57:27.872Z,102417.34
2022-10-09T12:59:29.856Z,102418.63
2022-10-09T13:01:33.038Z,102416.09
2022-10-09T13:03:40.839Z,102415.25
2022-10-09T13:05:42.636Z,102402.78
2022-10-09T13:07:52.464Z,102410.72
2022-10-09T13:10:07.750Z,102408.06
2022-10-09T13:12:21.158Z,102403.75
2022-10-09T13:15:03.748Z,102401.09
2022-10-09T13:17:05.324Z,102399.38
2022-10-09T13:19:31.049Z,102388.00
2022-10-09T13:21:35.293Z,102383.69
2022-10-09T13:23:37.040Z,102386.44
2022-10-09T13:25:43.013Z,102373.97
2022-10-09T13:27:44.474Z,102373.88
2022-10-09T13:29:47.651Z,102372.88
2022-10-09T13:31:49.271Z,102368.47
2022-10-09T13:33:50.964Z,102377.34
2022-10-09T13:35:52.369Z,102360.53
2022-10-09T13:37:53.799Z,102362.28
2022-10-09T13:39:59.569Z,102363.09
2022-10-09T13:42:02.865Z,102362.19
2022-10-09T13:44:04.299Z,102358.69
2022-10-09T13:46:06.048Z,102352.53
2022-10-09T13:48:07.555Z,102349.91
2022-10-09T13:50:10.547Z,102342.00
2022-10-09T13:52:12.141Z,102342.94
2022-10-09T13:54:13.591Z,102342.94
2022-10-09T13:56:15.281Z,102342.06
2022-10-09T13:58:16.830Z,102337.69
2022-10-09T14:00:18.352Z,102333.28
2022-10-09T14:02:19.849Z,102329.78
2022-10-09T14:04:21.326Z,102329.81
2022-10-09T14:06:22.899Z,102320.03
2022-10-09T14:08:24.346Z,102316.47
2022-10-09T14:10:26.759Z,102318.25
2022-10-09T14:12:28.720Z,102320.88
2022-10-09T14:14:30.201Z,102312.00
2022-10-09T14:16:32.139Z,102315.59
2022-10-09T14:18:33.894Z,102310.34
2022-10-09T14:20:35.983Z,102303.31
2022-10-09T14:22:37.393Z,102307.75
2022-10-09T14:24:39.173Z,102297.00
2022-10-09T14:26:41.261Z,102298.88
2022-10-09T14:28:42.785Z,102299.78
2022-10-09T14:30:44.292Z,102295.34
2022-10-09T14:32:46.022Z,102290.88
2022-10-09T14:34:47.613Z,102287.34
2022-10-09T14:36:49.260Z,102295.34
2022-10-09T14:38:51.057Z,102285.63
2022-10-09T14:40:52.488Z,102279.44
2022-10-09T14:42:53.912Z,102275.03
2022-10-09T14:44:55.367Z,102266.94
2022-10-09T14:46:56.863Z,102268.75
2022-10-09T14:48:58.978Z,102270.50
2022-10-09T14:51:10.323Z,102266.13
2022-10-09T14:53:11.762Z,102262.59
2022-10-09T14:55:13.232Z,102258.16
2022-10-09T14:57:14.718Z,102256.31
2022-10-09T14:59:16.156Z,102253.75
2022-10-09T15:01:19.507Z,102252.00
2022-10-09T15:03:20.987Z,102246.69
2022-10-09T15:05:22.445Z,102251.16
2022-10-09T15:07:24.529Z,102250.22
2022-10-09T15:09:26.465Z,102243.22
2022-10-09T15:11:29.742Z,102238.78
2022-10-09T15:13:33.624Z,102235.31
2022-10-09T15:15:35.328Z,102242.47
2022-10-09T15:17:36.820Z,102233.59
2022-10-09T15:19:38.548Z,102231.03
2022-10-09T15:21:39.986Z,102224.00
2022-10-09T15:23:43.271Z,102229.41
2022-10-09T15:25:52.746Z,102221.47
2022-10-09T15:27:55.019Z,102215.25
2022-10-09T15:29:56.813Z,102217.09
2022-10-09T15:31:58.260Z,102218.91
2022-10-09T15:34:03.413Z,102208.47
2022-10-09T15:36:04.921Z,102199.69
2022-10-09T15:38:06.975Z,102192.66
2022-10-09T15:40:08.862Z,102190.84
2022-10-09T15:42:10.269Z,102188.25
2022-10-09T15:44:21.142Z,102182.06
2022-10-09T15:46:23.440Z,102183.03
2022-10-09T15:48:25.119Z,102180.47
2022-10-09T15:50:26.554Z,102179.66
2022-10-09T15:52:28.022Z,102170.75
2022-10-09T15:54:30.061Z,102173.41
2022-10-09T15:56:34.815Z,102168.19
2022-10-09T15:58:39.290Z,102173.63
2022-10-09T16:00:43.293Z,102168.38
2022-10-09T16:02:44.774Z,102166.69
2022-10-09T16:04:46.220Z,102162.47
2022-10-09T16:06:47.764Z,102162.63
2022-10-09T16:08:49.972Z,102153.88
2022-10-09T16:10:55.416Z,102152.13
2022-10-09T16:12:56.907Z,102143.28
2022-10-09T16:14:59.843Z,102148.59
2022-10-09T16:17:01.424Z,102148.72
2022-10-09T16:19:04.551Z,102144.38
2022-10-09T16:21:16.897Z,102142.75
2022-10-09T16:23:18.497Z,102142.06
2022-10-09T16:25:19.959Z,102136.84
2022-10-09T16:27:21.438Z,102137.88
2022-10-09T16:29:22.920Z,102144.09
2022-10-09T16:31:26.818Z,102134.41
2022-10-09T16:33:29.187Z,102143.38
2022-10-09T16:35:30.600Z,102134.63
2022-10-09T16:37:32.146Z,102131.22
2022-10-09T16:39:33.567Z,102132.19
2022-10-09T16:41:38.363Z,102133.13
2022-10-09T16:43:43.991Z,102130.56
2022-10-09T16:45:45.426Z,102138.63
2022-10-09T16:47:48.628Z,102131.66
2022-10-09T16:49:50.254Z,102124.72
2022-10-09T16:51:51.687Z,102130.97
2022-10-09T16:53:56.259Z,102126.63
2022-10-09T16:56:06.624Z,102128.53
2022-10-09T16:58:08.047Z,102131.28
2022-10-09T17:00:10.298Z,102130.41
2022-10-09T17:02:13.353Z,102128.72
2022-10-09T17:04:15.650Z,102122.66
2022-10-09T17:06:23.806Z,102126.28
2022-10-09T17:08:25.367Z,102126.38
2022-10-09T17:10:26.847Z,102127.34
2022-10-09T17:12:28.386Z,102128.25
2022-10-09T17:14:30.069Z,102131.88
2022-10-09T17:16:35.191Z,102124.91
2022-10-09T17:18:37.312Z,102119.69
2022-10-09T17:20:39.333Z,102125.94
2022-10-09T17:22:40.791Z,102128.69
2022-10-09T17:24:42.374Z,102126.97
2022-10-09T17:26:43.882Z,102127.94
2022-10-09T17:28:46.759Z,102128.00
2022-10-09T17:30:48.308Z,102128.09
2022-10-09T17:32:49.955Z,102122.00
2022-10-09T17:34:51.575Z,102127.38
2022-10-09T17:36:53.085Z,102123.03
2022-10-09T17:38:55.338Z,102127.47
2022-10-09T17:40:56.876Z,102125.78
2022-10-09T17:42:58.311Z,102118.78
2022-10-09T17:45:00.479Z,102118.88
2022-10-09T17:47:02.013Z,102120.66
2022-10-09T17:49:04.127Z,102121.63
2022-10-09T17:51:05.867Z,102117.28
2022-10-09T17:53:07.550Z,102110.34
2022-10-09T17:55:09.188Z,102106.91
2022-10-09T17:57:12.444Z,102111.34
2022-10-09T17:59:15.603Z,102105.22
2022-10-09T18:01:18.202Z,102103.50
2022-10-09T18:03:19.985Z,102102.66
2022-10-09T18:05:21.418Z,102102.69
2022-10-09T18:07:23.673Z,102095.66
2022-10-09T18:09:25.126Z,102101.00
2022-10-09T18:11:27.554Z,102094.88
2022-10-09T18:13:29.375Z,102093.16
2022-10-09T18:15:30.903Z,102102.00
2022-10-09T18:17:34.347Z,102095.00
2022-10-09T18:19:35.826Z,102094.16
2022-10-09T18:21:39.890Z,102091.53
2022-10-09T18:23:41.323Z,102096.91
2022-10-09T18:25:44.312Z,102081.94
2022-10-09T18:27:45.768Z,102095.22
2022-10-09T18:29:47.243Z,102086.47
2022-10-09T18:31:50.528Z,102087.38
2022-10-09T18:33:52.332Z,102087.41
2022-10-09T18:35:53.808Z,102086.56
2022-10-09T18:37:55.234Z,102083.94
2022-10-09T18:39:56.708Z,102082.22
2022-10-09T18:41:58.336Z,102078.72
2022-10-09T18:44:00.693Z,102077.91
2022-10-09T18:46:03.287Z,102073.56
2022-10-09T18:48:05.515Z,102076.25
2022-10-09T18:50:10.712Z,102076.28
2022-10-09T18:52:13.825Z,102071.91
2022-10-09T18:54:18.301Z,102083.38
2022-10-09T18:56:21.868Z,102074.63
2022-10-09T18:58:23.829Z,102069.38
2022-10-09T19:00:25.447Z,102068.50
2022-10-09T19:02:27.466Z,102070.31
2022-10-09T19:04:29.088Z,102064.19
2022-10-09T19:06:30.880Z,102074.78
2022-10-09T19:08:33.931Z,102065.13
2022-10-09T19:10:35.357Z,102059.88
2022-10-09T19:12:36.897Z,102060.78
2022-10-09T19:14:38.372Z,102056.41
2022-10-09T19:16:39.823Z,102055.56
2022-10-09T19:18:41.362Z,102058.22
2022-10-09T19:20:42.782Z,102037.13
2022-10-09T19:22:44.495Z,102033.66
2022-10-09T19:24:46.060Z,102031.94
2022-10-09T19:26:47.494Z,102027.59
2022-10-09T19:28:49.337Z,102032.00
2022-10-09T19:30:51.669Z,102028.50
2022-10-09T19:32:53.262Z,102028.53
2022-10-09T19:34:55.151Z,102028.53
2022-10-09T19:36:56.644Z,102032.97
2022-10-09T19:38:58.092Z,102025.97
2022-10-09T19:41:04.760Z,102033.03
2022-10-09T19:43:06.469Z,102026.88
2022-10-09T19:45:08.667Z,102032.19
2022-10-09T19:47:11.219Z,102032.19
2022-10-09T19:49:12.681Z,102026.06
2022-10-09T19:51:17.257Z,102026.97
2022-10-09T19:53:18.664Z,102026.09
2022-10-09T19:55:20.145Z,102027.00
2022-10-09T19:57:21.617Z,102020.00
2022-10-09T19:59:23.076Z,102023.50
2022-10-09T20:01:26.722Z,102021.75
2022-10-09T20:03:28.304Z,102020.03
2022-10-09T20:05:29.913Z,102012.13
2022-10-09T20:07:31.670Z,102013.91
2022-10-09T20:09:33.377Z,102011.31
2022-10-09T20:11:35.089Z,102019.22
2022-10-09T20:13:37.922Z,102011.34
2022-10-09T20:15:42.406Z,102013.09
2022-10-09T20:17:43.937Z,102010.50
2022-10-09T20:19:45.869Z,102013.16
2022-10-09T20:21:47.452Z,102011.44
2022-10-09T20:23:48.870Z,102008.84
2022-10-09T20:26:05.908Z,102008.88
2022-10-09T20:28:07.388Z,102002.75
2022-10-09T20:30:09.332Z,102003.63
2022-10-09T20:32:12.189Z,102004.53
2022-10-09T20:34:13.666Z,102003.66
2022-10-09T20:36:23.521Z,102004.53
2022-10-09T20:38:26.057Z,102001.91
2022-10-09T20:40:27.694Z,101997.50
2022-10-09T20:42:29.245Z,101990.50
2022-10-09T20:44:30.767Z,101993.13
2022-10-09T20:46:34.496Z,101988.78
2022-10-09T20:48:36.125Z,101987.03
2022-10-09T20:50:41.760Z,101991.47
2022-10-09T20:52:43.249Z,101995.84
2022-10-09T20:54:44.711Z,101986.19
2022-10-09T20:56:47.014Z,101987.06
2022-10-09T20:58:49.040Z,101987.97
2022-10-09T21:00:50.464Z,101981.81
2022-10-09T21:02:52.498Z,101982.72
2022-10-09T21:04:54.198Z,101977.44
2022-10-09T21:06:55.673Z,101975.72
2022-10-09T21:08:57.823Z,101971.31
2022-10-09T21:10:59.759Z,101971.34
2022-10-09T21:13:01.172Z,101971.34
2022-10-09T21:15:02.832Z,101975.75
2022-10-09T21:17:04.263Z,101974.00
2022-10-09T21:19:07.563Z,101967.84
2022-10-09T21:21:11.852Z,101966.94
2022-10-09T21:23:15.120Z,101967.84
2022-10-09T21:25:16.671Z,101964.34
2022-10-09T21:27:18.414Z,101957.31
2022-10-09T21:29:19.890Z,101959.09
2022-10-09T21:31:26.217Z,101959.09
2022-10-09T21:33:27.759Z,101951.19
2022-10-09T21:35:29.227Z,101956.47
2022-10-09T21:37:33.527Z,101958.25
2022-10-09T21:39:37.048Z,101956.50
2022-10-09T21:41:39.108Z,101949.47
2022-10-09T21:43:40.530Z,101952.13
2022-10-09T21:45:42.436Z,101951.25
2022-10-09T21:47:43.847Z,101945.13
2022-10-09T21:49:45.663Z,101943.38
2022-10-09T21:51:48.085Z,101943.38
2022-10-09T21:53:49.641Z,101937.25
2022-10-09T21:55:51.098Z,101933.75
2022-10-09T21:57:53.597Z,101932.88
2022-10-09T21:59:55.025Z,101932.84
2022-10-09T22:01:56.588Z,101930.22
2022-10-09T22:03:58.025Z,101933.75
2022-10-09T22:05:59.618Z,101923.22
2022-10-09T22:08:01.068Z,101920.59
2022-10-09T22:10:02.903Z,101914.47
2022-10-09T22:12:04.391Z,101911.84
2022-10-09T22:14:07.039Z,101911.88
2022-10-09T22:16:11.159Z,101909.25
2022-10-09T22:18:12.624Z,101909.25
2022-10-09T22:20:14.114Z,101900.47
2022-10-09T22:22:15.563Z,101895.19
2022-10-09T22:24:17.007Z,101893.44
2022-10-09T22:26:20.800Z,101894.31
2022-10-09T22:28:22.297Z,101893.47
2022-10-09T22:30:23.800Z,101891.66
2022-10-09T22:32:25.234Z,101890.78
2022-10-09T22:34:26.803Z,101888.16
2022-10-09T22:36:31.128Z,101887.28
2022-10-09T22:38:32.728Z,101887.28
2022-10-09T22:40:34.171Z,101885.53
2022-10-09T22:42:35.569Z,101881.16
2022-10-09T22:44:37.412Z,101875.00
2022-10-09T22:46:41.267Z,101879.41
2022-10-09T22:48:43.558Z,101868.88
2022-10-09T22:50:45.002Z,101872.38
2022-10-09T22:52:46.431Z,101866.25
2022-10-09T22:54:47.849Z,101866.25
2022-10-09T22:56:49.326Z,101864.50
2022-10-09T22:58:52.956Z,101863.63
2022-10-09T23:00:55.460Z,101863.63
2022-10-09T23:02:56.984Z,101857.50
2022-10-09T23:04:58.414Z,101855.75
2022-10-09T23:07:00.212Z,101849.59
2022-10-09T23:09:05.476Z,101840.84
2022-10-09T23:11:07.909Z,101842.59
2022-10-09T23:13:09.383Z,101840.88
2022-10-09T23:15:10.801Z,101835.59
2022-10-09T23:17:12.223Z,101824.22
2022-10-09T23:19:13.728Z,101825.09
2022-10-09T23:21:16.967Z,101821.59
2022-10-09T23:23:18.463Z,101818.09
2022-10-09T23:25:19.992Z,101819.84
2022-10-09T23:27:21.573Z,101811.09
2022-10-09T23:29:23.019Z,101815.47
2022-10-09T23:31:25.638Z,101813.72
2022-10-09T23:33:27.057Z,101814.59
2022-10-09T23:35:28.552Z,101803.22
2022-10-09T23:37:29.993Z,101803.22
2022-10-09T23:39:31.405Z,101806.72
2022-10-09T23:41:33.488Z,101799.72